Time;durP1;ratioP1;P1;durP2;ratioP2;P2;SDS_P1;SDS_P2;PMS_P1;PMS_P2;Temp;Humidity;BMP_temperature;BMP_pressure;BME280_temperature;BME280_humidity;BME280_pressure;Samples;Min_cycle;Max_cycle;Signal;HPM_P1;HPM_P2
2021/08/12 00:00:56;;;;;;;11.53;7.73;;;;;;;;;;5089718;28;20099;-67
2021/08/12 00:03:21;;;;;;;16.13;8.90;;;;;;;;;;5090317;28;20972;-67
2021/08/12 00:05:46;;;;;;;14.53;8.67;;;;;;;;;;5090597;28;20066;-67
2021/08/12 00:08:12;;;;;;;13.90;9.73;;;;;;;;;;5090306;28;20732;-67
2021/08/12 00:10:37;;;;;;;18.00;8.85;;;;;;;;;;5090950;28;20375;-67
2021/08/12 00:13:02;;;;;;;12.73;7.60;;;;;;;;;;5089749;28;20020;-65
2021/08/12 00:15:27;;;;;;;14.63;8.40;;;;;;;;;;5090423;28;20297;-67
2021/08/12 00:17:52;;;;;;;16.13;9.50;;;;;;;;;;5090096;28;20024;-67
2021/08/12 00:20:18;;;;;;;23.05;10.75;;;;;;;;;;5090362;28;20482;-67
2021/08/12 00:22:43;;;;;;;16.95;8.77;;;;;;;;;;5089611;28;20051;-67
2021/08/12 00:25:08;;;;;;;15.98;9.30;;;;;;;;;;5089897;28;20024;-67
2021/08/12 00:27:34;;;;;;;14.50;8.43;;;;;;;;;;5091092;28;20350;-67
2021/08/12 00:29:59;;;;;;;18.60;10.48;;;;;;;;;;5089693;28;20080;-66
2021/08/12 00:32:24;;;;;;;19.50;11.40;;;;;;;;;;5090053;28;20214;-67
2021/08/12 00:34:49;;;;;;;15.20;9.73;;;;;;;;;;5089937;28;20371;-67
2021/08/12 00:37:15;;;;;;;16.20;10.90;;;;;;;;;;5089022;28;20285;-67
2021/08/12 00:39:40;;;;;;;26.63;11.15;;;;;;;;;;5089591;28;20372;-66
2021/08/12 00:42:06;;;;;;;14.70;10.15;;;;;;;;;;5089287;28;20115;-66
2021/08/12 00:44:31;;;;;;;19.05;10.90;;;;;;;;;;5090159;28;20066;-67
2021/08/12 00:46:56;;;;;;;16.30;10.53;;;;;;;;;;5089921;28;20024;-67
2021/08/12 00:49:21;;;;;;;14.48;9.30;;;;;;;;;;5089811;28;21567;-67
2021/08/12 00:51:47;;;;;;;17.90;9.93;;;;;;;;;;5089665;28;20038;-67
2021/08/12 00:54:12;;;;;;;18.88;10.45;;;;;;;;;;5089319;28;20271;-67
2021/08/12 00:56:38;;;;;;;14.50;10.13;;;;;;;;;;5090244;28;20386;-66
2021/08/12 00:59:03;;;;;;;20.65;9.30;;;;;;;;;;5086677;28;20032;-67
2021/08/12 01:01:30;;;;;;;17.53;8.33;;;;;;;;;;5089630;28;20051;-66
2021/08/12 01:03:56;;;;;;;12.18;8.68;;;;;;;;;;5080082;28;20760;-67
2021/08/12 01:06:26;;;;;;;15.23;8.57;;;;;;;;;;5084871;28;20055;-67
2021/08/12 01:08:59;;;;;;;13.07;9.07;;;;;;;;;;5080693;28;20020;-67
2021/08/12 01:11:28;;;;;;;15.38;9.63;;;;;;;;;;5077484;28;20111;-66
2021/08/12 01:14:02;;;;;;;16.50;9.57;;;;;;;;;;5074376;28;20568;-67
2021/08/12 01:16:29;;;;;;;13.63;8.88;;;;;;;;;;5088781;28;20024;-67
2021/08/12 01:18:55;;;;;;;18.85;9.75;;;;;;;;;;5089232;28;20035;-67
2021/08/12 01:21:46;;;;;;;18.30;10.13;;;;;;;;;;5089677;28;20099;-67
2021/08/12 01:24:12;;;;;;;13.02;9.65;;;;;;;;;;5089906;28;20020;-68
2021/08/12 01:26:39;;;;;;;14.32;9.68;;;;;;;;;;5089217;28;20432;-67
2021/08/12 01:29:06;;;;;;;16.20;9.45;;;;;;;;;;5089269;28;20130;-67
2021/08/12 01:31:39;;;;;;;20.13;9.75;;;;;;;;;;5090176;28;20377;-67
2021/08/12 01:34:08;;;;;;;14.55;9.20;;;;;;;;;;5089084;28;20101;-67
2021/08/12 01:36:34;;;;;;;14.30;9.43;;;;;;;;;;5088215;28;20039;-67
2021/08/12 01:39:02;;;;;;;13.40;9.68;;;;;;;;;;5088381;28;20027;-67
2021/08/12 01:41:28;;;;;;;15.18;8.32;;;;;;;;;;5070122;28;20671;-67
2021/08/12 01:43:53;;;;;;;15.98;9.70;;;;;;;;;;5089087;28;20020;-67
2021/08/12 01:46:19;;;;;;;14.40;9.35;;;;;;;;;;5089037;28;20039;-67
2021/08/12 01:48:44;;;;;;;15.40;9.45;;;;;;;;;;5089466;28;20012;-67
2021/08/12 01:51:09;;;;;;;15.05;9.73;;;;;;;;;;5093224;28;20077;-67
2021/08/12 01:53:36;;;;;;;14.40;9.57;;;;;;;;;;5092471;28;20428;-67
2021/08/12 01:56:01;;;;;;;16.30;10.15;;;;;;;;;;5093176;28;20608;-67
2021/08/12 01:58:28;;;;;;;14.02;9.52;;;;;;;;;;5091081;28;20016;-67
2021/08/12 02:00:55;;;;;;;14.57;9.68;;;;;;;;;;5089384;28;20031;-66
2021/08/12 02:03:21;;;;;;;17.35;9.52;;;;;;;;;;5091914;28;20073;-67
2021/08/12 02:05:47;;;;;;;18.73;10.90;;;;;;;;;;5093064;28;20032;-66
2021/08/12 02:08:12;;;;;;;14.23;9.90;;;;;;;;;;5092687;28;20031;-66
2021/08/12 02:10:38;;;;;;;21.45;9.65;;;;;;;;;;5092669;28;20035;-67
2021/08/12 02:13:05;;;;;;;16.73;10.03;;;;;;;;;;5092462;28;20449;-67
2021/08/12 02:15:30;;;;;;;21.90;10.27;;;;;;;;;;5092214;28;20308;-67
2021/08/12 02:17:56;;;;;;;16.50;10.83;;;;;;;;;;5092492;28;20024;-66
2021/08/12 02:20:21;;;;;;;17.23;10.27;;;;;;;;;;5092464;28;21025;-67
2021/08/12 02:22:56;;;;;;;21.17;10.90;;;;;;;;;;5092009;28;20274;-66
2021/08/12 02:25:43;;;;;;;18.77;11.27;;;;;;;;;;5092755;28;20686;-67
2021/08/12 02:28:09;;;;;;;17.70;10.05;;;;;;;;;;5085164;28;20028;-67
2021/08/12 02:30:36;;;;;;;20.88;10.65;;;;;;;;;;5092168;28;20024;-67
2021/08/12 02:33:02;;;;;;;19.27;10.57;;;;;;;;;;5092223;28;20027;-67
2021/08/12 02:35:27;;;;;;;14.95;9.77;;;;;;;;;;5092756;28;20016;-66
2021/08/12 02:37:53;;;;;;;15.95;9.38;;;;;;;;;;5092362;28;20024;-67
2021/08/12 02:40:20;;;;;;;21.83;11.75;;;;;;;;;;5092366;28;20477;-66
2021/08/12 02:42:45;;;;;;;21.38;10.63;;;;;;;;;;5091390;28;20016;-67
2021/08/12 02:45:11;;;;;;;19.45;10.20;;;;;;;;;;5092184;28;20020;-67
2021/08/12 02:47:37;;;;;;;25.40;11.07;;;;;;;;;;5091518;28;20031;-66
2021/08/12 02:50:03;;;;;;;16.52;10.55;;;;;;;;;;5089374;28;20016;-67
2021/08/12 02:52:29;;;;;;;18.00;10.27;;;;;;;;;;5091753;28;20016;-67
2021/08/12 02:54:54;;;;;;;20.90;10.20;;;;;;;;;;5092059;28;20050;-67
2021/08/12 02:57:20;;;;;;;16.75;11.20;;;;;;;;;;5091004;28;20119;-67
2021/08/12 02:59:46;;;;;;;16.67;10.57;;;;;;;;;;5091487;28;20024;-67
2021/08/12 03:02:12;;;;;;;21.55;11.32;;;;;;;;;;5090144;28;20440;-67
2021/08/12 03:04:37;;;;;;;16.10;9.93;;;;;;;;;;5091653;28;20136;-67
2021/08/12 03:07:03;;;;;;;16.27;10.40;;;;;;;;;;5090960;28;20016;-67
2021/08/12 03:09:29;;;;;;;17.52;10.43;;;;;;;;;;5088110;28;20028;-66
2021/08/12 03:11:55;;;;;;;16.33;9.23;;;;;;;;;;5091433;28;20046;-67
2021/08/12 03:14:21;;;;;;;14.13;10.02;;;;;;;;;;5091411;28;20020;-66
2021/08/12 03:16:47;;;;;;;18.20;11.02;;;;;;;;;;5091784;28;20028;-67
2021/08/12 03:19:12;;;;;;;24.42;11.07;;;;;;;;;;5090025;28;20062;-67
2021/08/12 03:21:37;;;;;;;18.58;10.23;;;;;;;;;;5091550;28;20099;-67
2021/08/12 03:24:04;;;;;;;16.67;10.95;;;;;;;;;;5091222;28;20016;-67
2021/08/12 03:26:30;;;;;;;19.50;11.00;;;;;;;;;;5090735;28;20024;-66
2021/08/12 03:28:55;;;;;;;17.63;10.55;;;;;;;;;;5090809;28;20513;-67
2021/08/12 03:31:20;;;;;;;13.90;9.63;;;;;;;;;;5090333;28;20085;-67
2021/08/12 03:33:45;;;;;;;19.53;9.43;;;;;;;;;;5077846;28;20283;-67
2021/08/12 03:36:11;;;;;;;16.27;10.05;;;;;;;;;;5088366;28;20305;-67
2021/08/12 03:38:36;;;;;;;20.87;10.37;;;;;;;;;;5090762;28;20141;-67
2021/08/12 03:41:01;;;;;;;17.40;9.23;;;;;;;;;;5091311;28;20269;-67
2021/08/12 03:43:26;;;;;;;19.00;10.43;;;;;;;;;;5079782;28;20259;-67
2021/08/12 03:45:52;;;;;;;20.98;10.05;;;;;;;;;;5071211;28;20013;-66
2021/08/12 03:48:17;;;;;;;16.35;10.15;;;;;;;;;;5089005;28;20020;-67
2021/08/12 03:50:42;;;;;;;19.02;9.48;;;;;;;;;;5091280;28;20035;-67
2021/08/12 03:53:07;;;;;;;17.23;9.90;;;;;;;;;;5090351;28;20478;-66
2021/08/12 03:55:32;;;;;;;20.47;10.80;;;;;;;;;;5090983;28;20341;-67
2021/08/12 03:57:58;;;;;;;15.38;11.30;;;;;;;;;;5087760;28;20616;-66
2021/08/12 04:00:23;;;;;;;19.35;10.70;;;;;;;;;;5083894;28;20499;-67
2021/08/12 04:02:48;;;;;;;17.58;11.23;;;;;;;;;;5089559;28;20020;-66
2021/08/12 04:05:13;;;;;;;17.60;11.37;;;;;;;;;;5090822;28;20020;-67
2021/08/12 04:07:38;;;;;;;15.73;10.80;;;;;;;;;;5090148;28;20307;-66
2021/08/12 04:10:04;;;;;;;14.73;10.60;;;;;;;;;;5089783;28;20606;-67
2021/08/12 04:12:30;;;;;;;20.23;9.57;;;;;;;;;;5089123;28;20387;-67
2021/08/12 04:14:56;;;;;;;22.33;11.63;;;;;;;;;;5090987;28;20026;-67
2021/08/12 04:17:21;;;;;;;20.27;11.03;;;;;;;;;;5089494;28;20102;-67
2021/08/12 04:19:46;;;;;;;22.67;11.00;;;;;;;;;;5089979;28;20621;-67
2021/08/12 04:22:11;;;;;;;21.20;10.57;;;;;;;;;;5090175;28;20286;-67
2021/08/12 04:24:36;;;;;;;18.33;9.63;;;;;;;;;;5090229;28;20610;-67
2021/08/12 04:27:02;;;;;;;19.00;10.83;;;;;;;;;;5089872;28;20031;-67
2021/08/12 04:29:27;;;;;;;20.02;10.73;;;;;;;;;;5097940;28;20670;-67
2021/08/12 04:31:52;;;;;;;17.00;10.45;;;;;;;;;;5100504;28;20027;-66
2021/08/12 04:34:17;;;;;;;17.75;11.10;;;;;;;;;;5090088;28;20085;-67
2021/08/12 04:36:43;;;;;;;19.63;11.63;;;;;;;;;;5090226;28;20144;-67
2021/08/12 04:39:08;;;;;;;17.20;10.18;;;;;;;;;;5089369;28;20470;-67
2021/08/12 04:41:33;;;;;;;19.27;10.50;;;;;;;;;;5090258;28;20026;-67
2021/08/12 04:43:58;;;;;;;20.55;11.05;;;;;;;;;;5089626;28;20167;-66
2021/08/12 04:46:24;;;;;;;17.10;11.00;;;;;;;;;;5089768;28;20023;-67
2021/08/12 04:48:49;;;;;;;16.05;10.02;;;;;;;;;;5089194;28;20026;-67
2021/08/12 04:51:14;;;;;;;13.30;9.23;;;;;;;;;;5090428;28;20027;-67
2021/08/12 04:53:39;;;;;;;15.77;10.47;;;;;;;;;;5090204;28;20255;-68
2021/08/12 04:56:04;;;;;;;16.23;10.82;;;;;;;;;;5089490;28;20265;-67
2021/08/12 04:58:30;;;;;;;16.38;10.57;;;;;;;;;;5089341;28;20024;-67
2021/08/12 05:00:55;;;;;;;18.13;11.45;;;;;;;;;;5089692;28;20032;-67
2021/08/12 05:03:20;;;;;;;16.10;9.73;;;;;;;;;;5089393;28;20499;-67
2021/08/12 05:05:45;;;;;;;16.48;9.95;;;;;;;;;;5089502;28;20254;-67
2021/08/12 05:08:10;;;;;;;19.50;10.23;;;;;;;;;;5089368;28;20111;-67
2021/08/12 05:10:36;;;;;;;22.23;11.05;;;;;;;;;;5089501;28;20262;-67
2021/08/12 05:13:01;;;;;;;19.05;10.80;;;;;;;;;;5089465;28;20020;-67
2021/08/12 05:15:27;;;;;;;14.45;9.65;;;;;;;;;;5089072;28;20020;-67
2021/08/12 05:17:53;;;;;;;16.75;10.55;;;;;;;;;;5088965;28;20102;-67
2021/08/12 05:20:18;;;;;;;16.48;9.85;;;;;;;;;;5089723;28;20063;-67
2021/08/12 05:22:43;;;;;;;18.03;10.83;;;;;;;;;;5077976;28;20024;-67
2021/08/12 05:25:08;;;;;;;20.23;11.43;;;;;;;;;;5092036;28;20352;-67
2021/08/12 05:27:33;;;;;;;16.00;10.40;;;;;;;;;;5093184;28;20611;-67
2021/08/12 05:29:59;;;;;;;18.48;10.23;;;;;;;;;;5105966;28;20430;-67
2021/08/12 05:32:24;;;;;;;24.55;10.60;;;;;;;;;;5091291;28;20038;-66
2021/08/12 05:34:49;;;;;;;16.47;10.37;;;;;;;;;;5092879;28;20405;-66
2021/08/12 05:37:14;;;;;;;17.57;11.83;;;;;;;;;;5077120;28;20343;-66
2021/08/12 05:39:39;;;;;;;15.37;9.67;;;;;;;;;;5091219;28;20388;-66
2021/08/12 05:42:05;;;;;;;22.90;10.98;;;;;;;;;;5078979;28;20266;-66
2021/08/12 05:44:30;;;;;;;14.25;10.80;;;;;;;;;;5088050;28;20020;-66
2021/08/12 05:46:55;;;;;;;21.97;10.20;;;;;;;;;;5087498;28;20051;-66
2021/08/12 05:49:23;;;;;;;20.30;11.73;;;;;;;;;;5089844;28;20613;-67
2021/08/12 05:51:49;;;;;;;19.10;10.50;;;;;;;;;;5083547;28;20024;-67
2021/08/12 05:54:14;;;;;;;19.35;9.23;;;;;;;;;;5088545;28;20027;-67
2021/08/12 05:56:39;;;;;;;18.80;9.88;;;;;;;;;;5090421;28;20093;-67
2021/08/12 05:59:04;;;;;;;15.65;10.07;;;;;;;;;;5090740;28;20023;-67
2021/08/12 06:01:29;;;;;;;14.75;9.68;;;;;;;;;;5090866;28;20373;-67
2021/08/12 06:03:55;;;;;;;17.67;9.70;;;;;;;;;;5090753;28;20020;-67
2021/08/12 06:06:20;;;;;;;13.82;9.38;;;;;;;;;;5091404;28;20028;-67
2021/08/12 06:08:45;;;;;;;23.60;9.63;;;;;;;;;;5091301;28;20023;-67
2021/08/12 06:11:11;;;;;;;17.27;10.20;;;;;;;;;;5090935;28;20673;-67
2021/08/12 06:13:36;;;;;;;16.85;9.35;;;;;;;;;;5088772;28;20020;-66
2021/08/12 06:16:01;;;;;;;23.50;11.67;;;;;;;;;;5092399;28;20047;-66
2021/08/12 06:18:26;;;;;;;15.95;8.80;;;;;;;;;;5092065;28;20366;-66
2021/08/12 06:20:52;;;;;;;16.65;9.65;;;;;;;;;;5092875;28;20367;-67
2021/08/12 06:23:17;;;;;;;20.73;10.25;;;;;;;;;;5092690;28;20012;-66
2021/08/12 06:25:42;;;;;;;19.52;10.38;;;;;;;;;;5093096;28;20095;-67
2021/08/12 06:28:08;;;;;;;16.13;10.00;;;;;;;;;;5092231;28;20039;-67
2021/08/12 06:30:33;;;;;;;16.48;10.02;;;;;;;;;;5092728;28;20024;-66
2021/08/12 06:32:59;;;;;;;15.32;9.13;;;;;;;;;;5091361;28;20077;-66
2021/08/12 06:35:26;;;;;;;20.33;9.37;;;;;;;;;;5089873;28;20050;-66
2021/08/12 06:37:51;;;;;;;21.73;11.27;;;;;;;;;;5091152;28;20321;-66
2021/08/12 06:40:19;;;;;;;19.67;10.25;;;;;;;;;;5092287;28;20054;-66
2021/08/12 06:42:44;;;;;;;13.15;9.15;;;;;;;;;;5092283;28;20023;-66
2021/08/12 06:45:10;;;;;;;20.05;8.65;;;;;;;;;;5076842;28;20020;-67
2021/08/12 06:47:38;;;;;;;16.17;8.52;;;;;;;;;;5091180;28;20120;-67
2021/08/12 06:50:04;;;;;;;18.83;10.30;;;;;;;;;;5090735;28;20024;-67
2021/08/12 06:52:29;;;;;;;15.77;8.45;;;;;;;;;;5092140;28;20016;-67
2021/08/12 06:54:55;;;;;;;16.17;9.15;;;;;;;;;;5091797;28;20031;-67
2021/08/12 06:57:20;;;;;;;14.27;7.53;;;;;;;;;;5091338;28;20040;-67
2021/08/12 06:59:45;;;;;;;15.57;8.52;;;;;;;;;;5091649;28;20293;-67
2021/08/12 07:02:10;;;;;;;15.20;9.60;;;;;;;;;;5089622;28;20028;-67
2021/08/12 07:04:35;;;;;;;17.13;9.63;;;;;;;;;;5083326;28;20250;-67
2021/08/12 07:07:01;;;;;;;14.77;8.30;;;;;;;;;;5091264;28;20097;-67
2021/08/12 07:09:26;;;;;;;19.55;10.15;;;;;;;;;;5086161;28;20033;-67
2021/08/12 07:11:52;;;;;;;15.52;8.85;;;;;;;;;;5077458;28;20024;-67
2021/08/12 07:14:17;;;;;;;18.98;9.07;;;;;;;;;;5091260;28;20095;-67
2021/08/12 07:16:43;;;;;;;12.60;8.82;;;;;;;;;;5088366;28;20111;-68
2021/08/12 07:19:08;;;;;;;20.70;9.07;;;;;;;;;;5090418;28;20043;-68
2021/08/12 07:21:33;;;;;;;17.73;7.82;;;;;;;;;;5090435;28;20286;-68
2021/08/12 07:23:58;;;;;;;18.33;7.87;;;;;;;;;;5091102;28;20020;-68
2021/08/12 07:26:24;;;;;;;20.02;9.60;;;;;;;;;;5091492;28;20271;-68
2021/08/12 07:28:49;;;;;;;15.77;9.57;;;;;;;;;;5096071;28;20020;-68
2021/08/12 07:31:15;;;;;;;18.60;9.77;;;;;;;;;;5101551;28;20065;-68
2021/08/12 07:33:40;;;;;;;14.90;8.90;;;;;;;;;;5103679;28;20261;-68
2021/08/12 07:36:06;;;;;;;13.85;8.68;;;;;;;;;;5090520;28;20024;-68
2021/08/12 07:38:33;;;;;;;16.90;9.38;;;;;;;;;;5091319;28;20084;-68
2021/08/12 07:40:58;;;;;;;22.50;11.82;;;;;;;;;;5090462;28;20031;-68
2021/08/12 07:43:24;;;;;;;21.20;11.13;;;;;;;;;;5090560;28;20024;-68
2021/08/12 07:45:49;;;;;;;19.15;11.43;;;;;;;;;;5072607;28;20097;-68
2021/08/12 07:48:14;;;;;;;22.25;11.15;;;;;;;;;;5091456;28;20034;-68
2021/08/12 07:50:40;;;;;;;22.48;11.30;;;;;;;;;;5090635;28;20020;-68
2021/08/12 07:53:05;;;;;;;18.73;11.25;;;;;;;;;;5090665;28;20413;-69
2021/08/12 07:55:31;;;;;;;16.07;10.80;;;;;;;;;;5090792;28;20460;-68
2021/08/12 07:57:56;;;;;;;17.48;9.90;;;;;;;;;;5089505;28;20055;-68
2021/08/12 08:00:21;;;;;;;16.93;10.53;;;;;;;;;;5090544;28;20479;-68
2021/08/12 08:02:47;;;;;;;17.97;9.93;;;;;;;;;;5090798;28;20012;-68
2021/08/12 08:05:13;;;;;;;15.73;9.70;;;;;;;;;;5090954;28;20020;-68
2021/08/12 08:07:38;;;;;;;15.60;10.93;;;;;;;;;;5090221;28;20475;-68
2021/08/12 08:10:05;;;;;;;16.57;11.20;;;;;;;;;;5090635;28;20402;-68
2021/08/12 08:12:30;;;;;;;15.93;10.20;;;;;;;;;;5089254;28;20336;-68
2021/08/12 08:14:55;;;;;;;19.57;10.30;;;;;;;;;;5090553;28;20538;-68
2021/08/12 08:17:20;;;;;;;17.67;9.33;;;;;;;;;;5090262;28;20028;-68
2021/08/12 08:19:45;;;;;;;18.43;9.77;;;;;;;;;;5089440;28;20393;-68
2021/08/12 08:22:10;;;;;;;18.57;10.13;;;;;;;;;;5089913;28;20023;-68
2021/08/12 08:24:36;;;;;;;17.50;9.80;;;;;;;;;;5090998;28;20394;-68
2021/08/12 08:27:01;;;;;;;15.47;8.97;;;;;;;;;;5090590;28;20034;-68
2021/08/12 08:29:26;;;;;;;27.40;10.80;;;;;;;;;;5089884;28;20394;-68
2021/08/12 08:31:51;;;;;;;15.43;9.55;;;;;;;;;;5089738;28;20031;-68
2021/08/12 08:34:16;;;;;;;21.27;10.43;;;;;;;;;;5089904;28;20482;-68
2021/08/12 08:39:10;;;;;;;16.90;9.27;;;;;;;;;;5083553;22;20186;-67
2021/08/12 08:41:36;;;;;;;11.05;7.35;;;;;;;;;;5068823;28;20016;-65
2021/08/12 08:44:02;;;;;;;18.13;9.52;;;;;;;;;;5060151;28;20039;-67
2021/08/12 08:46:27;;;;;;;14.82;7.95;;;;;;;;;;5053336;28;20020;-67
2021/08/12 08:48:56;;;;;;;16.70;7.57;;;;;;;;;;5050590;28;20033;-66
2021/08/12 08:51:21;;;;;;;14.18;7.80;;;;;;;;;;5050236;28;20009;-67
2021/08/12 08:53:47;;;;;;;15.38;9.23;;;;;;;;;;5048906;28;20095;-66
2021/08/12 08:56:13;;;;;;;16.70;9.27;;;;;;;;;;5049068;28;20029;-67
2021/08/12 08:58:38;;;;;;;14.95;8.15;;;;;;;;;;5051241;28;20319;-67
2021/08/12 09:01:04;;;;;;;19.08;7.78;;;;;;;;;;5053060;28;20072;-68
2021/08/12 09:03:29;;;;;;;14.67;8.00;;;;;;;;;;5053772;28;20017;-68
2021/08/12 09:05:54;;;;;;;15.65;9.02;;;;;;;;;;5053815;28;20259;-68
2021/08/12 09:08:19;;;;;;;11.37;7.10;;;;;;;;;;5053986;28;20029;-68
2021/08/12 09:10:44;;;;;;;15.80;6.82;;;;;;;;;;5053583;28;20295;-68
2021/08/12 09:13:10;;;;;;;11.67;6.87;;;;;;;;;;5053285;28;20025;-68
2021/08/12 09:15:39;;;;;;;14.73;8.90;;;;;;;;;;5053606;28;20313;-67
2021/08/12 09:18:17;;;;;;;15.10;8.97;;;;;;;;;;5053759;28;20267;-68
2021/08/12 09:20:45;;;;;;;14.02;8.10;;;;;;;;;;5053459;28;20637;-68
2021/08/12 09:23:10;;;;;;;12.68;7.70;;;;;;;;;;5053374;28;20103;-68
2021/08/12 09:25:40;;;;;;;14.20;7.87;;;;;;;;;;5053415;28;20097;-68
2021/08/12 09:28:05;;;;;;;;;;;;;;;;;;5053639;28;20051;-68
2021/08/12 09:30:30;;;;;;;17.42;8.60;;;;;;;;;;5053829;28;19948;-68
2021/08/12 09:32:56;;;;;;;17.57;9.00;;;;;;;;;;5053718;28;20112;-68
2021/08/12 09:35:26;;;;;;;16.57;10.27;;;;;;;;;;5053095;28;20037;-68
2021/08/12 09:37:51;;;;;;;;;;;;;;;;;;5053364;28;20151;-68
2021/08/12 09:40:22;;;;;;;22.90;8.55;;;;;;;;;;5053154;28;20011;-68
2021/08/12 09:42:54;;;;;;;16.48;7.35;;;;;;;;;;5052574;28;20017;-68
2021/08/12 09:45:23;;;;;;;11.65;7.25;;;;;;;;;;5053208;28;20025;-68
2021/08/12 09:47:48;;;;;;;17.58;7.47;;;;;;;;;;5052796;28;20039;-68
2021/08/12 09:50:21;;;;;;;11.88;8.13;;;;;;;;;;5053344;28;20474;-68
2021/08/12 09:52:48;;;;;;;12.68;8.10;;;;;;;;;;5052482;28;20031;-68
2021/08/12 09:55:18;;;;;;;12.75;8.05;;;;;;;;;;5052478;28;20483;-68
2021/08/12 09:57:46;;;;;;;12.93;8.27;;;;;;;;;;5052543;28;20029;-67
2021/08/12 10:00:12;;;;;;;18.08;9.15;;;;;;;;;;5052802;28;20155;-68
2021/08/12 10:02:37;;;;;;;17.48;8.45;;;;;;;;;;5052651;28;20107;-68
2021/08/12 10:05:06;;;;;;;11.48;7.05;;;;;;;;;;5052328;28;20370;-67
2021/08/12 10:07:39;;;;;;;12.45;7.20;;;;;;;;;;5050364;28;20044;-67
2021/08/12 10:10:08;;;;;;;16.13;7.28;;;;;;;;;;5047550;28;20032;-68
2021/08/12 10:12:33;;;;;;;14.77;6.53;;;;;;;;;;5050897;28;20021;-67
2021/08/12 10:14:58;;;;;;;12.07;4.72;;;;;;;;;;5048821;28;20018;-68
2021/08/12 10:17:24;;;;;;;10.60;5.97;;;;;;;;;;5051612;28;20032;-68
2021/08/12 10:19:49;;;;;;;8.55;5.18;;;;;;;;;;5052434;28;20025;-68
2021/08/12 10:22:14;;;;;;;12.95;6.20;;;;;;;;;;5052324;28;20082;-68
2021/08/12 10:24:39;;;;;;;10.87;5.43;;;;;;;;;;5049678;28;20017;-68
2021/08/12 10:27:05;;;;;;;11.20;5.63;;;;;;;;;;5050635;28;20033;-68
2021/08/12 10:29:34;;;;;;;9.38;5.13;;;;;;;;;;5051740;28;20025;-68
2021/08/12 10:32:00;;;;;;;8.55;5.25;;;;;;;;;;5051149;28;20032;-68
2021/08/12 10:34:25;;;;;;;8.65;5.05;;;;;;;;;;5052123;28;20036;-68
2021/08/12 10:36:51;;;;;;;9.55;3.97;;;;;;;;;;5055511;28;20126;-68
2021/08/12 10:39:17;;;;;;;9.85;4.70;;;;;;;;;;5052612;28;20056;-68
2021/08/12 10:41:43;;;;;;;9.55;4.85;;;;;;;;;;5057493;28;20021;-68
2021/08/12 10:44:08;;;;;;;9.18;4.40;;;;;;;;;;5051332;28;20021;-67
2021/08/12 10:46:38;;;;;;;7.93;4.40;;;;;;;;;;5051194;28;20021;-68
2021/08/12 10:49:21;;;;;;;7.90;4.97;;;;;;;;;;5052137;28;20259;-68
2021/08/12 10:51:50;;;;;;;12.52;5.22;;;;;;;;;;5051768;28;20383;-68
2021/08/12 10:54:16;;;;;;;8.63;4.95;;;;;;;;;;5052091;28;20016;-68
2021/08/12 10:56:43;;;;;;;12.52;4.88;;;;;;;;;;5051304;28;20021;-68
2021/08/12 10:59:08;;;;;;;8.00;5.00;;;;;;;;;;5051903;28;20379;-68
2021/08/12 11:01:34;;;;;;;8.88;4.53;;;;;;;;;;5051986;28;20024;-68
2021/08/12 11:04:02;;;;;;;7.80;4.75;;;;;;;;;;5052432;28;20378;-69
2021/08/12 11:06:35;;;;;;;8.63;5.10;;;;;;;;;;5051133;28;20427;-68
2021/08/12 11:09:02;;;;;;;14.05;5.25;;;;;;;;;;5051613;28;20092;-68
2021/08/12 11:11:27;;;;;;;9.00;5.50;;;;;;;;;;5033528;28;20108;-68
2021/08/12 11:13:57;;;;;;;17.93;6.30;;;;;;;;;;5051649;28;20052;-68
2021/08/12 11:16:23;;;;;;;7.50;5.10;;;;;;;;;;5050723;28;20890;-68
2021/08/12 11:18:49;;;;;;;8.30;4.50;;;;;;;;;;5051126;28;20436;-70
2021/08/12 11:21:30;;;;;;;10.32;4.07;;;;;;;;;;5050918;28;20392;-69
2021/08/12 11:23:58;;;;;;;8.18;4.38;;;;;;;;;;5050315;28;20021;-68
2021/08/12 11:26:24;;;;;;;7.10;4.38;;;;;;;;;;5050920;28;20017;-69
2021/08/12 11:28:50;;;;;;;7.80;4.25;;;;;;;;;;5050294;28;20489;-69
2021/08/12 11:31:23;;;;;;;7.65;4.03;;;;;;;;;;5050442;28;20638;-69
2021/08/12 11:33:53;;;;;;;6.38;4.85;;;;;;;;;;5050778;28;20029;-69
2021/08/12 11:36:24;;;;;;;13.52;5.43;;;;;;;;;;5032984;28;20029;-69
2021/08/12 11:38:54;;;;;;;10.93;4.70;;;;;;;;;;5050708;28;20037;-69
2021/08/12 11:41:19;;;;;;;;;;;;;;;;;;5051360;28;20063;-69
2021/08/12 11:43:45;;;;;;;15.27;6.80;;;;;;;;;;5050661;28;19912;-69
2021/08/12 11:46:11;;;;;;;12.23;5.47;;;;;;;;;;5050725;28;20466;-68
2021/08/12 11:48:38;;;;;;;8.55;5.30;;;;;;;;;;5050343;28;20424;-68
2021/08/12 11:51:03;;;;;;;14.02;5.35;;;;;;;;;;5051149;28;20111;-68
2021/08/12 11:53:40;;;;;;;20.27;5.15;;;;;;;;;;5050582;28;20103;-67
2021/08/12 11:56:22;;;;;;;12.35;5.97;;;;;;;;;;5050014;28;20096;-68
2021/08/12 11:58:49;;;;;;;12.65;4.88;;;;;;;;;;5050281;28;20094;-68
2021/08/12 12:01:16;;;;;;;11.27;5.40;;;;;;;;;;5050247;28;20471;-68
2021/08/12 12:03:42;;;;;;;13.35;6.20;;;;;;;;;;5069960;28;20025;-68
2021/08/12 12:06:07;;;;;;;13.25;5.40;;;;;;;;;;5065139;28;20035;-68
2021/08/12 12:08:33;;;;;;;13.20;5.60;;;;;;;;;;5050319;28;20430;-68
2021/08/12 12:11:08;;;;;;;12.30;6.50;;;;;;;;;;5049636;28;20040;-68
2021/08/12 12:13:33;;;;;;;13.82;6.95;;;;;;;;;;5050194;28;20382;-67
2021/08/12 12:15:58;;;;;;;12.63;5.90;;;;;;;;;;5050242;28;20024;-68
2021/08/12 12:18:30;;;;;;;14.50;7.20;;;;;;;;;;5049903;28;20379;-68
2021/08/12 12:21:01;;;;;;;11.13;5.93;;;;;;;;;;5034422;28;20028;-67
2021/08/12 12:23:26;;;;;;;8.65;5.35;;;;;;;;;;5050205;28;20032;-68
2021/08/12 12:25:51;;;;;;;10.55;5.45;;;;;;;;;;5049830;28;20017;-68
2021/08/12 12:28:18;;;;;;;9.30;5.20;;;;;;;;;;5049596;28;20033;-68
2021/08/12 12:30:43;;;;;;;14.88;4.75;;;;;;;;;;5050135;28;20051;-68
2021/08/12 12:33:09;;;;;;;7.93;4.60;;;;;;;;;;5049382;28;20067;-68
2021/08/12 12:35:39;;;;;;;12.02;4.68;;;;;;;;;;5049603;28;20271;-68
2021/08/12 12:38:08;;;;;;;8.75;4.97;;;;;;;;;;5049447;28;20103;-67
2021/08/12 12:40:34;;;;;;;12.32;5.68;;;;;;;;;;5049797;28;20497;-68
2021/08/12 12:43:00;;;;;;;10.13;4.80;;;;;;;;;;5050074;28;20518;-68
2021/08/12 12:45:25;;;;;;;9.35;5.07;;;;;;;;;;5050108;28;20144;-68
2021/08/12 12:47:50;;;;;;;8.88;5.07;;;;;;;;;;5049114;28;20020;-67
2021/08/12 12:50:19;;;;;;;15.07;4.63;;;;;;;;;;5049750;28;20116;-67
2021/08/12 12:53:01;;;;;;;9.15;3.72;;;;;;;;;;5049958;28;20499;-67
2021/08/12 12:55:27;;;;;;;9.68;4.82;;;;;;;;;;5050006;28;20571;-67
2021/08/12 12:57:53;;;;;;;12.65;5.28;;;;;;;;;;5048527;28;20056;-68
2021/08/12 13:00:31;;;;;;;8.90;4.95;;;;;;;;;;5048992;28;20052;-68
2021/08/12 13:02:57;;;;;;;12.23;5.57;;;;;;;;;;5051436;28;20027;-68
2021/08/12 13:05:23;;;;;;;28.80;6.68;;;;;;;;;;5049470;28;20013;-67
2021/08/12 13:07:48;;;;;;;10.27;5.13;;;;;;;;;;5049203;28;20025;-68
2021/08/12 13:10:18;;;;;;;7.88;4.18;;;;;;;;;;5048867;28;20017;-68
2021/08/12 13:12:54;;;;;;;20.90;5.95;;;;;;;;;;5060465;28;20021;-68
2021/08/12 13:15:20;;;;;;;13.52;5.35;;;;;;;;;;5038629;28;20364;-67
2021/08/12 13:17:54;;;;;;;11.88;5.97;;;;;;;;;;5048938;28;20123;-68
2021/08/12 13:20:20;;;;;;;10.95;5.78;;;;;;;;;;5049834;28;20033;-68
2021/08/12 13:22:47;;;;;;;8.57;5.88;;;;;;;;;;5049315;28;20565;-68
2021/08/12 13:25:12;;;;;;;13.13;5.40;;;;;;;;;;5050294;28;20067;-68
2021/08/12 13:27:48;;;;;;;13.85;6.40;;;;;;;;;;5049175;28;20020;-68
2021/08/12 13:30:14;;;;;;;12.00;5.90;;;;;;;;;;5049333;28;20429;-69
2021/08/12 13:32:39;;;;;;;11.57;6.30;;;;;;;;;;5047509;28;20110;-70
2021/08/12 13:35:05;;;;;;;10.98;5.68;;;;;;;;;;5031429;28;20029;-69
2021/08/12 13:37:30;;;;;;;11.23;6.53;;;;;;;;;;5049371;28;20021;-68
2021/08/12 13:39:56;;;;;;;13.77;6.70;;;;;;;;;;5048901;28;20386;-70
2021/08/12 13:42:21;;;;;;;18.67;5.70;;;;;;;;;;5049171;28;20055;-69
2021/08/12 13:44:47;;;;;;;9.17;5.67;;;;;;;;;;5049411;28;20045;-69
2021/08/12 13:47:12;;;;;;;13.18;5.63;;;;;;;;;;5040054;28;20372;-69
2021/08/12 13:49:37;;;;;;;12.47;6.10;;;;;;;;;;5054008;28;20027;-69
2021/08/12 13:52:04;;;;;;;14.50;5.40;;;;;;;;;;5052804;28;20025;-69
2021/08/12 13:54:29;;;;;;;11.75;5.60;;;;;;;;;;5052570;28;20021;-69
2021/08/12 13:56:55;;;;;;;10.85;6.47;;;;;;;;;;5052826;28;20056;-69
2021/08/12 13:59:21;;;;;;;10.32;5.90;;;;;;;;;;5052951;28;20040;-68
2021/08/12 14:01:50;;;;;;;11.95;6.75;;;;;;;;;;5051891;28;20029;-69
2021/08/12 14:04:16;;;;;;;10.80;5.47;;;;;;;;;;5039805;28;20056;-69
2021/08/12 14:06:41;;;;;;;10.00;6.30;;;;;;;;;;5051449;28;20068;-69
2021/08/12 14:09:06;;;;;;;10.35;5.90;;;;;;;;;;5052504;28;20471;-70
2021/08/12 14:11:32;;;;;;;16.38;5.35;;;;;;;;;;5052925;28;20013;-68
2021/08/12 14:13:57;;;;;;;10.43;5.10;;;;;;;;;;5048912;28;20406;-67
2021/08/12 14:16:22;;;;;;;10.93;5.50;;;;;;;;;;5049587;28;20033;-69
2021/08/12 14:18:48;;;;;;;10.63;5.50;;;;;;;;;;5050096;28;20787;-68
2021/08/12 14:21:14;;;;;;;10.93;5.80;;;;;;;;;;5057557;28;20664;-69
2021/08/12 14:23:39;;;;;;;12.70;6.72;;;;;;;;;;5056370;28;20101;-69
2021/08/12 14:26:05;;;;;;;12.45;6.47;;;;;;;;;;5050859;28;20120;-68